Time;durP1;ratioP1;P1;durP2;ratioP2;P2;SDS_P1;SDS_P2;PMS_P1;PMS_P2;Temp;Humidity;BMP_temperature;BMP_pressure;BME280_temperature;BME280_humidity;BME280_pressure;Samples;Min_cycle;Max_cycle;Signal;HPM_P1;HPM_P2
2023/03/26 00:02:38;;;;;;;2.10;0.83;;;;;;;;;;6289455;22;20208;-90
2023/03/26 00:05:45;;;;;;;0.40;0.40;;;;;;;;;;6288896;22;20165;-91
2023/03/26 00:08:50;;;;;;;0.40;0.40;;;;;;;;;;6272054;22;20222;-90
2023/03/26 00:11:56;;;;;;;1.57;0.57;;;;;;;;;;6286697;22;20217;-89
2023/03/26 00:15:01;;;;;;;0.60;0.50;;;;;;;;;;6288089;22;20153;-89
2023/03/26 00:18:08;;;;;;;2.00;0.50;;;;;;;;;;6270070;22;20161;-91
2023/03/26 00:21:20;;;;;;;0.30;0.30;;;;;;;;;;6269042;22;20149;-90
2023/03/26 00:24:29;;;;;;;0.63;0.63;;;;;;;;;;6271115;22;20216;-92
2023/03/26 00:27:34;;;;;;;0.40;0.40;;;;;;;;;;6286997;22;20500;-90
2023/03/26 00:30:40;;;;;;;0.30;0.30;;;;;;;;;;6289422;22;20157;-88
2023/03/26 00:33:46;;;;;;;0.30;0.30;;;;;;;;;;6289680;22;20192;-91
2023/03/26 00:36:53;;;;;;;0.30;0.30;;;;;;;;;;6287655;22;20204;-93
2023/03/26 00:40:01;;;;;;;0.65;0.65;;;;;;;;;;6288861;22;20146;-90
2023/03/26 00:43:17;;;;;;;0.40;0.40;;;;;;;;;;6288379;22;20189;-89
2023/03/26 00:46:22;;;;;;;0.40;0.40;;;;;;;;;;6286550;22;20174;-90
2023/03/26 00:49:30;;;;;;;0.50;0.50;;;;;;;;;;6286483;22;20258;-93
2023/03/26 00:52:37;;;;;;;0.40;0.40;;;;;;;;;;6284669;22;20621;-90
2023/03/26 00:55:47;;;;;;;0.57;0.57;;;;;;;;;;6287178;22;20219;-93
2023/03/26 00:58:52;;;;;;;0.30;0.30;;;;;;;;;;6288138;22;20659;-89
2023/03/26 01:02:23;;;;;;;4.40;1.20;;;;;;;;;;6287985;22;20170;-88
2023/03/26 01:05:51;;;;;;;0.40;0.40;;;;;;;;;;6286424;22;20285;-89
2023/03/26 01:08:59;;;;;;;0.40;0.40;;;;;;;;;;6288677;22;20166;-91
2023/03/26 01:12:05;;;;;;;0.50;0.50;;;;;;;;;;6269739;22;20153;-92
2023/03/26 01:15:12;;;;;;;0.68;0.68;;;;;;;;;;6287479;22;20478;-88
2023/03/26 01:18:19;;;;;;;0.30;0.30;;;;;;;;;;6270186;22;20169;-89
2023/03/26 01:21:29;;;;;;;0.88;0.88;;;;;;;;;;6286693;22;20170;-89
2023/03/26 01:24:35;;;;;;;0.45;0.45;;;;;;;;;;6286432;22;20248;-89
2023/03/26 01:27:42;;;;;;;0.30;0.30;;;;;;;;;;6272477;22;20173;-92
2023/03/26 01:30:51;;;;;;;0.38;0.38;;;;;;;;;;6273388;22;20161;-90
2023/03/26 01:33:59;;;;;;;0.40;0.40;;;;;;;;;;6289567;22;20162;-89
2023/03/26 01:37:12;;;;;;;0.30;0.30;;;;;;;;;;6291615;22;20162;-88
2023/03/26 01:40:22;;;;;;;0.30;0.30;;;;;;;;;;6289555;22;20170;-90
2023/03/26 01:43:31;;;;;;;0.85;0.50;;;;;;;;;;6272786;22;20532;-89
2023/03/26 01:46:37;;;;;;;0.30;0.30;;;;;;;;;;6290659;22;20164;-92
2023/03/26 01:49:42;;;;;;;0.60;0.43;;;;;;;;;;6288428;22;20240;-91
2023/03/26 01:52:49;;;;;;;0.47;0.47;;;;;;;;;;6290324;22;20193;-89
2023/03/26 01:56:00;;;;;;;0.43;0.43;;;;;;;;;;6288006;22;20189;-92
2023/03/26 01:59:09;;;;;;;0.30;0.30;;;;;;;;;;6290336;22;20169;-92
2023/03/26 02:02:16;;;;;;;0.43;0.43;;;;;;;;;;6289916;22;20221;-91
2023/03/26 02:05:23;;;;;;;0.63;0.60;;;;;;;;;;6270752;22;20250;-88
2023/03/26 02:08:34;;;;;;;0.30;0.30;;;;;;;;;;6271485;22;20173;-93
2023/03/26 02:11:41;;;;;;;0.50;0.50;;;;;;;;;;6289216;22;20461;-89
2023/03/26 02:14:47;;;;;;;0.30;0.30;;;;;;;;;;6287792;22;20181;-90
2023/03/26 02:17:52;;;;;;;0.30;0.30;;;;;;;;;;6271937;22;20170;-90
2023/03/26 02:20:57;;;;;;;0.38;0.38;;;;;;;;;;6288693;22;20230;-92
2023/03/26 02:24:03;;;;;;;5.10;1.40;;;;;;;;;;6289914;22;20252;-88
2023/03/26 02:27:12;;;;;;;3.92;1.20;;;;;;;;;;6289741;22;20166;-87
2023/03/26 02:30:20;;;;;;;2.35;1.17;;;;;;;;;;6291410;22;20166;-91
2023/03/26 02:33:28;;;;;;;4.55;1.50;;;;;;;;;;6290706;22;20167;-93
2023/03/26 02:36:34;;;;;;;6.93;1.35;;;;;;;;;;6289557;22;20169;-91
2023/03/26 02:39:41;;;;;;;6.22;1.95;;;;;;;;;;6289572;22;20169;-87
2023/03/26 02:43:00;;;;;;;4.53;1.48;;;;;;;;;;6290386;22;20166;-91
2023/03/26 02:46:08;;;;;;;6.03;1.65;;;;;;;;;;6271557;22;20170;-93
2023/03/26 02:49:29;;;;;;;4.88;1.27;;;;;;;;;;6271614;22;20169;-91
2023/03/26 02:52:34;;;;;;;3.22;1.20;;;;;;;;;;6290108;22;20233;-91
2023/03/26 02:55:40;;;;;;;6.28;1.25;;;;;;;;;;6287396;22;20608;-89
2023/03/26 02:58:47;;;;;;;2.47;1.10;;;;;;;;;;6288513;22;20165;-92
2023/03/26 03:01:55;;;;;;;3.13;1.10;;;;;;;;;;6288444;22;20265;-91
2023/03/26 03:05:01;;;;;;;2.97;1.10;;;;;;;;;;6288681;22;20220;-90
2023/03/26 03:08:10;;;;;;;2.47;1.20;;;;;;;;;;6288958;22;20255;-94
2023/03/26 03:11:23;;;;;;;5.60;1.20;;;;;;;;;;6288104;22;20170;-90
2023/03/26 03:14:30;;;;;;;6.32;1.90;;;;;;;;;;6269240;22;20209;-88
2023/03/26 03:17:35;;;;;;;6.95;2.03;;;;;;;;;;6244550;23;20181;-91
2023/03/26 03:20:46;;;;;;;8.60;2.90;;;;;;;;;;6242029;23;20166;-91
2023/03/26 03:23:51;;;;;;;10.40;4.50;;;;;;;;;;6241007;22;20174;-88
2023/03/26 03:26:56;;;;;;;7.95;2.50;;;;;;;;;;6241827;22;20170;-87
2023/03/26 03:30:15;;;;;;;6.00;2.30;;;;;;;;;;6243138;22;20175;-91
2023/03/26 03:33:41;;;;;;;7.03;3.20;;;;;;;;;;6260882;23;20170;-92
2023/03/26 03:36:48;;;;;;;7.47;3.25;;;;;;;;;;6241645;22;20195;-90
2023/03/26 03:40:16;;;;;;;7.30;2.65;;;;;;;;;;6261560;22;20150;-94
2023/03/26 03:43:22;;;;;;;5.57;1.80;;;;;;;;;;6243675;22;20170;-92
2023/03/26 03:46:42;;;;;;;7.70;1.70;;;;;;;;;;6242349;23;20610;-93
2023/03/26 03:49:47;;;;;;;9.25;2.50;;;;;;;;;;6242362;22;20149;-88
2023/03/26 03:52:54;;;;;;;5.20;1.85;;;;;;;;;;6241363;22;20167;-91
2023/03/26 03:56:00;;;;;;;4.95;1.20;;;;;;;;;;6241677;22;20213;-88
2023/03/26 03:59:24;;;;;;;9.75;2.72;;;;;;;;;;6242151;23;20218;-90
2023/03/26 04:02:45;;;;;;;6.25;1.77;;;;;;;;;;6240362;23;20171;-91
2023/03/26 04:05:53;;;;;;;3.20;1.58;;;;;;;;;;6241815;22;20277;-90
2023/03/26 04:09:00;;;;;;;6.03;1.27;;;;;;;;;;6241596;22;20186;-91
2023/03/26 04:12:05;;;;;;;4.97;2.33;;;;;;;;;;6241975;22;20234;-90
2023/03/26 04:15:16;;;;;;;4.90;1.70;;;;;;;;;;6242611;23;20194;-91
2023/03/26 04:18:26;;;;;;;4.45;1.65;;;;;;;;;;6243907;22;20190;-91
2023/03/26 04:21:42;;;;;;;6.90;1.77;;;;;;;;;;6244386;22;20617;-91
2023/03/26 04:24:49;;;;;;;5.35;2.08;;;;;;;;;;6244942;22;20661;-92
2023/03/26 04:28:05;;;;;;;7.40;1.83;;;;;;;;;;6262739;22;20166;-91
2023/03/26 04:31:29;;;;;;;7.88;1.75;;;;;;;;;;6244439;22;20155;-89
2023/03/26 04:34:36;;;;;;;8.10;2.30;;;;;;;;;;6243728;22;20173;-88
2023/03/26 04:37:49;;;;;;;14.73;3.65;;;;;;;;;;6243121;22;20194;-91
2023/03/26 04:41:06;;;;;;;12.43;4.22;;;;;;;;;;6242750;23;20214;-90
2023/03/26 04:44:21;;;;;;;10.77;3.08;;;;;;;;;;6244083;23;20186;-89
2023/03/26 04:47:49;;;;;;;12.48;3.17;;;;;;;;;;6244074;22;20150;-91
2023/03/26 04:50:55;;;;;;;11.32;3.38;;;;;;;;;;6243536;22;20614;-93
2023/03/26 04:54:02;;;;;;;6.80;2.17;;;;;;;;;;6242960;23;20166;-91
2023/03/26 04:57:27;;;;;;;6.15;2.05;;;;;;;;;;6242931;22;20171;-93
2023/03/26 05:00:39;;;;;;;10.43;3.00;;;;;;;;;;6242822;22;20226;-88
2023/03/26 05:03:44;;;;;;;7.45;2.28;;;;;;;;;;6242847;22;20166;-90
2023/03/26 05:06:52;;;;;;;7.82;2.35;;;;;;;;;;6242210;23;20170;-90
2023/03/26 05:10:09;;;;;;;8.00;2.72;;;;;;;;;;6243272;23;20167;-88
2023/03/26 05:13:37;;;;;;;10.80;3.08;;;;;;;;;;6262100;22;20146;-88
2023/03/26 05:16:49;;;;;;;11.17;3.67;;;;;;;;;;6243985;22;20171;-87
2023/03/26 05:19:53;;;;;;;13.15;3.03;;;;;;;;;;6243698;23;20170;-93
2023/03/26 05:23:26;;;;;;;9.40;2.40;;;;;;;;;;6242383;22;20645;-90
2023/03/26 05:26:44;;;;;;;6.37;1.30;;;;;;;;;;6242450;22;20154;-88
2023/03/26 05:29:50;;;;;;;6.63;1.50;;;;;;;;;;6243857;23;20167;-90
2023/03/26 05:32:55;;;;;;;5.30;1.67;;;;;;;;;;6242617;23;20163;-91
2023/03/26 05:36:08;;;;;;;5.38;2.00;;;;;;;;;;6242144;23;20163;-87
2023/03/26 05:39:13;;;;;;;6.27;2.23;;;;;;;;;;6243063;22;20167;-88
2023/03/26 05:42:46;;;;;;;7.03;2.10;;;;;;;;;;6255833;22;20202;-90
2023/03/26 05:46:10;;;;;;;4.90;1.65;;;;;;;;;;6260205;22;20217;-88
2023/03/26 05:49:16;;;;;;;3.90;1.27;;;;;;;;;;6242953;23;20170;-88
2023/03/26 05:52:21;;;;;;;7.03;1.58;;;;;;;;;;6241944;22;20166;-88
2023/03/26 05:55:46;;;;;;;6.57;1.10;;;;;;;;;;6262451;22;20597;-92
2023/03/26 05:58:53;;;;;;;4.47;1.63;;;;;;;;;;6261901;22;20622;-91
2023/03/26 06:06:45;;;;;;;12.20;1.83;;;;;;;;;;6261574;23;20621;-93
2023/03/26 06:09:50;;;;;;;5.45;1.48;;;;;;;;;;6242592;23;20178;-88
2023/03/26 06:12:56;;;;;;;10.93;1.70;;;;;;;;;;6241430;23;20201;-89
2023/03/26 06:16:06;;;;;;;4.88;1.15;;;;;;;;;;6241962;22;20166;-89
2023/03/26 06:19:14;;;;;;;3.05;1.20;;;;;;;;;;6244090;22;20503;-91
2023/03/26 06:22:35;;;;;;;3.08;1.10;;;;;;;;;;6242235;23;20166;-90
2023/03/26 06:26:20;;;;;;;7.13;1.40;;;;;;;;;;6261391;22;20199;-89
2023/03/26 06:29:57;;;;;;;7.18;1.90;;;;;;;;;;6236339;22;20278;-91
2023/03/26 06:33:21;;;;;;;7.15;2.15;;;;;;;;;;6243869;23;20151;-89
2023/03/26 06:36:29;;;;;;;5.75;2.42;;;;;;;;;;6242034;23;20672;-89
2023/03/26 06:39:34;;;;;;;5.28;1.42;;;;;;;;;;6244036;22;20146;-90
2023/03/26 06:43:01;;;;;;;5.55;1.30;;;;;;;;;;6243328;23;20225;-90
2023/03/26 06:46:26;;;;;;;6.88;1.42;;;;;;;;;;6243025;22;20198;-91
2023/03/26 06:50:12;;;;;;;4.93;1.60;;;;;;;;;;6198190;23;20227;-88
2023/03/26 06:53:37;;;;;;;4.55;1.70;;;;;;;;;;6204286;23;20307;-89
2023/03/26 06:56:55;;;;;;;2.63;1.30;;;;;;;;;;6242182;23;20214;-90
2023/03/26 07:00:35;;;;;;;5.50;1.45;;;;;;;;;;6260174;22;20167;-93
2023/03/26 07:03:59;;;;;;;4.18;1.00;;;;;;;;;;6259117;22;20557;-91
2023/03/26 07:07:25;;;;;;;7.15;1.30;;;;;;;;;;6260428;22;20159;-92
2023/03/26 07:10:56;;;;;;;4.40;1.52;;;;;;;;;;6252699;22;20186;-89
2023/03/26 07:14:26;;;;;;;6.13;1.60;;;;;;;;;;6258322;22;20188;-90
2023/03/26 07:18:07;;;;;;;16.50;5.28;;;;;;;;;;6172084;23;20242;-87
2023/03/26 07:21:18;;;;;;;115.60;33.38;;;;;;;;;;6243689;22;20167;-91
2023/03/26 07:24:30;;;;;;;27.95;9.50;;;;;;;;;;6244832;23;20248;-88
2023/03/26 07:28:00;;;;;;;38.90;12.85;;;;;;;;;;6260236;22;20194;-87
2023/03/26 07:31:29;;;;;;;7.60;2.40;;;;;;;;;;6238692;22;20275;-93
2023/03/26 07:34:57;;;;;;;5.85;1.70;;;;;;;;;;6263214;22;20185;-88
2023/03/26 07:38:28;;;;;;;8.00;1.40;;;;;;;;;;6260042;22;20158;-90
2023/03/26 07:42:12;;;;;;;5.70;1.52;;;;;;;;;;6262367;22;20281;-91
2023/03/26 07:45:39;;;;;;;12.70;1.48;;;;;;;;;;6262733;22;20190;-87
2023/03/26 07:48:53;;;;;;;13.20;1.55;;;;;;;;;;6259998;22;20170;-90
2023/03/26 07:52:13;;;;;;;5.40;1.70;;;;;;;;;;6242361;22;20149;-93
2023/03/26 07:55:34;;;;;;;6.57;1.73;;;;;;;;;;6242701;23;20229;-89
2023/03/26 07:59:15;;;;;;;4.35;1.48;;;;;;;;;;6258322;22;20178;-91
2023/03/26 08:03:03;;;;;;;5.18;1.30;;;;;;;;;;6241475;23;20209;-90
2023/03/26 08:06:33;;;;;;;5.05;1.23;;;;;;;;;;6260013;22;20202;-89
2023/03/26 08:09:54;;;;;;;7.13;1.40;;;;;;;;;;6242370;22;20205;-91
2023/03/26 08:13:19;;;;;;;6.78;1.40;;;;;;;;;;6243948;22;20166;-91
2023/03/26 08:16:28;;;;;;;8.30;1.45;;;;;;;;;;6244130;23;20620;-91
2023/03/26 08:19:39;;;;;;;4.13;1.60;;;;;;;;;;6244032;23;20206;-91
2023/03/26 08:23:13;;;;;;;4.22;1.33;;;;;;;;;;6241142;23;20178;-90
2023/03/26 08:26:24;;;;;;;5.20;1.52;;;;;;;;;;6240413;23;20238;-90
2023/03/26 08:29:36;;;;;;;4.32;1.20;;;;;;;;;;6242194;23;20217;-90
2023/03/26 08:32:43;;;;;;;4.88;1.60;;;;;;;;;;6241473;23;20183;-91
2023/03/26 08:35:50;;;;;;;8.00;2.05;;;;;;;;;;6240994;22;20245;-92
2023/03/26 08:39:04;;;;;;;7.72;1.55;;;;;;;;;;6241892;23;20503;-91
2023/03/26 08:42:34;;;;;;;8.52;1.60;;;;;;;;;;6239155;23;20175;-90
2023/03/26 08:45:54;;;;;;;5.75;1.27;;;;;;;;;;6239356;23;20206;-88
2023/03/26 08:49:20;;;;;;;9.20;1.70;;;;;;;;;;6240316;23;20254;-90
2023/03/26 08:52:36;;;;;;;8.18;1.60;;;;;;;;;;6240847;23;20213;-91
2023/03/26 08:55:44;;;;;;;7.97;2.25;;;;;;;;;;6240553;23;20170;-90
2023/03/26 08:59:15;;;;;;;14.15;2.80;;;;;;;;;;6239778;23;20286;-92
2023/03/26 09:02:26;;;;;;;11.35;2.55;;;;;;;;;;6241361;23;20170;-91
2023/03/26 09:05:42;;;;;;;10.43;2.15;;;;;;;;;;6242344;23;20242;-90
2023/03/26 09:09:04;;;;;;;7.38;1.80;;;;;;;;;;6239611;23;20227;-93
2023/03/26 09:12:30;;;;;;;8.15;1.55;;;;;;;;;;6242564;23;20236;-89
2023/03/26 09:15:41;;;;;;;9.00;1.67;;;;;;;;;;6239120;23;20209;-88
2023/03/26 09:19:05;;;;;;;8.95;1.50;;;;;;;;;;6241324;23;20174;-89
2023/03/26 09:22:28;;;;;;;6.90;1.52;;;;;;;;;;6241373;23;20170;-89
2023/03/26 09:25:48;;;;;;;7.80;1.63;;;;;;;;;;6242547;22;20289;-91
2023/03/26 09:29:14;;;;;;;8.48;1.88;;;;;;;;;;6243306;23;20171;-92
2023/03/26 09:32:40;;;;;;;7.88;1.35;;;;;;;;;;6243546;23;20171;-92
2023/03/26 09:35:52;;;;;;;6.47;1.88;;;;;;;;;;6244102;23;20166;-91
2023/03/26 09:39:00;;;;;;;11.75;1.40;;;;;;;;;;6244177;22;20166;-90
2023/03/26 09:42:10;;;;;;;8.85;1.73;;;;;;;;;;6242570;23;20171;-88
2023/03/26 09:45:30;;;;;;;8.23;1.63;;;;;;;;;;6242419;23;20169;-89
2023/03/26 09:48:56;;;;;;;7.00;1.55;;;;;;;;;;6242909;23;20174;-90
2023/03/26 09:52:13;;;;;;;10.75;1.80;;;;;;;;;;6243295;22;20174;-89
2023/03/26 09:55:34;;;;;;;8.93;1.60;;;;;;;;;;6242988;23;20174;-90
2023/03/26 09:58:56;;;;;;;8.10;1.55;;;;;;;;;;6241193;23;20166;-91
2023/03/26 10:02:17;;;;;;;8.80;1.63;;;;;;;;;;6240451;23;20171;-89
2023/03/26 10:05:42;;;;;;;7.25;1.48;;;;;;;;;;6241046;23;20487;-88
2023/03/26 10:08:55;;;;;;;5.82;1.92;;;;;;;;;;6239900;23;20178;-90
2023/03/26 10:12:31;;;;;;;7.57;1.60;;;;;;;;;;6240217;23;20166;-89
2023/03/26 10:15:41;;;;;;;7.63;2.17;;;;;;;;;;6148328;23;20199;-92
2023/03/26 10:18:50;;;;;;;7.47;1.88;;;;;;;;;;6240627;23;20175;-91
2023/03/26 10:22:12;;;;;;;6.00;1.40;;;;;;;;;;6239493;23;20167;-91
2023/03/26 10:25:29;;;;;;;13.27;3.45;;;;;;;;;;6241610;23;20154;-90
2023/03/26 10:28:43;;;;;;;14.05;1.90;;;;;;;;;;6239335;23;20182;-89
2023/03/26 10:31:52;;;;;;;7.15;1.83;;;;;;;;;;6240615;23;20563;-92
2023/03/26 10:35:03;;;;;;;9.70;2.20;;;;;;;;;;6241651;23;20167;-89
2023/03/26 10:38:15;;;;;;;8.05;1.65;;;;;;;;;;6240870;23;20220;-90
2023/03/26 10:41:23;;;;;;;7.70;1.48;;;;;;;;;;6242049;23;20179;-90
2023/03/26 10:44:39;;;;;;;6.50;1.50;;;;;;;;;;6244366;23;20433;-89
2023/03/26 10:48:06;;;;;;;5.50;1.67;;;;;;;;;;6241844;23;20170;-90
2023/03/26 10:51:34;;;;;;;5.65;1.48;;;;;;;;;;6229899;22;20177;-90
2023/03/26 10:54:46;;;;;;;8.90;1.95;;;;;;;;;;6244114;23;20247;-89
2023/03/26 10:57:54;;;;;;;8.15;1.60;;;;;;;;;;6244537;23;20174;-94
2023/03/26 11:05:28;;;;;;;7.65;1.98;;;;;;;;;;6264689;23;20155;-91
2023/03/26 11:08:38;;;;;;;10.48;2.00;;;;;;;;;;6247012;22;20153;-93
2023/03/26 11:11:49;;;;;;;9.65;2.25;;;;;;;;;;6246409;23;20324;-93
2023/03/26 11:15:00;;;;;;;13.65;2.30;;;;;;;;;;6244845;23;20198;-90
2023/03/26 11:18:10;;;;;;;11.80;3.13;;;;;;;;;;6245643;23;20167;-89
2023/03/26 11:21:18;;;;;;;15.50;3.63;;;;;;;;;;6244449;22;20226;-91
2023/03/26 11:24:39;;;;;;;12.82;2.60;;;;;;;;;;6243223;23;20194;-90
2023/03/26 11:27:54;;;;;;;6.72;1.42;;;;;;;;;;6241712;22;20210;-91
2023/03/26 11:31:03;;;;;;;7.28;1.20;;;;;;;;;;6242338;22;20242;-89
2023/03/26 11:34:12;;;;;;;8.88;1.60;;;;;;;;;;6243371;22;20166;-90
2023/03/26 11:37:19;;;;;;;8.30;2.05;;;;;;;;;;6244099;23;20170;-94
2023/03/26 11:40:26;;;;;;;12.52;2.38;;;;;;;;;;6242762;22;20166;-92
2023/03/26 11:43:35;;;;;;;9.15;2.40;;;;;;;;;;6242813;22;20656;-92
2023/03/26 11:46:43;;;;;;;9.48;1.95;;;;;;;;;;6244308;23;20270;-90
2023/03/26 11:49:50;;;;;;;14.38;2.47;;;;;;;;;;6244866;23;20162;-92
2023/03/26 13:03:30;;;;;;;7.68;1.73;;;;;;;;;;6243957;22;20194;-91
2023/03/26 13:06:39;;;;;;;7.38;2.22;;;;;;;;;;6292173;22;20221;-90
2023/03/26 13:09:51;;;;;;;11.93;2.60;;;;;;;;;;6292827;22;20176;-90
2023/03/26 13:13:03;;;;;;;10.52;2.28;;;;;;;;;;6293541;22;20162;-89
2023/03/26 13:16:42;;;;;;;9.88;2.65;;;;;;;;;;6275443;22;20173;-88
2023/03/26 13:19:51;;;;;;;9.90;2.75;;;;;;;;;;6294095;22;20215;-88
2023/03/26 13:23:07;;;;;;;15.70;2.40;;;;;;;;;;6292911;22;20234;-88
2023/03/26 13:26:17;;;;;;;10.45;2.47;;;;;;;;;;6294377;22;20228;-91
2023/03/26 13:29:26;;;;;;;15.20;3.90;;;;;;;;;;6293863;22;20170;-91
2023/03/26 13:32:38;;;;;;;7.05;2.35;;;;;;;;;;6293453;22;20169;-89
2023/03/26 13:35:49;;;;;;;6.05;1.70;;;;;;;;;;6291711;22;20214;-88
2023/03/26 13:39:06;;;;;;;8.07;1.95;;;;;;;;;;6290459;22;20216;-89
2023/03/26 13:42:21;;;;;;;8.20;1.40;;;;;;;;;;6268758;22;20185;-89
2023/03/26 13:45:34;;;;;;;5.28;1.67;;;;;;;;;;6287891;22;20583;-90
2023/03/26 13:48:43;;;;;;;7.03;1.70;;;;;;;;;;6271112;22;20201;-89
2023/03/26 13:51:53;;;;;;;11.18;2.38;;;;;;;;;;6294664;22;20157;-91
2023/03/26 13:55:04;;;;;;;9.68;1.60;;;;;;;;;;6292194;22;20169;-90
2023/03/26 13:58:13;;;;;;;4.95;1.67;;;;;;;;;;6272585;22;20170;-88
2023/03/26 14:01:21;;;;;;;9.15;2.80;;;;;;;;;;6292076;22;20173;-93
2023/03/26 14:04:31;;;;;;;5.30;1.60;;;;;;;;;;6290842;22;20193;-90
2023/03/26 14:07:41;;;;;;;2.35;1.20;;;;;;;;;;6288350;22;20189;-90
2023/03/26 14:10:48;;;;;;;7.22;2.35;;;;;;;;;;6287938;22;20165;-91
2023/03/26 14:13:56;;;;;;;3.53;1.38;;;;;;;;;;6287576;22;20169;-90
2023/03/26 14:17:04;;;;;;;4.20;1.50;;;;;;;;;;6287895;22;20169;-92
2023/03/26 14:20:24;;;;;;;3.35;1.10;;;;;;;;;;6289166;22;20248;-90
2023/03/26 14:23:50;;;;;;;4.30;1.10;;;;;;;;;;6291549;22;20170;-89
2023/03/26 14:27:05;;;;;;;3.83;1.15;;;;;;;;;;6288824;22;20194;-90
2023/03/26 14:30:25;;;;;;;3.30;1.10;;;;;;;;;;6289308;22;20590;-91
2023/03/26 14:33:43;;;;;;;5.03;1.35;;;;;;;;;;6271053;22;20157;-90
2023/03/26 14:36:58;;;;;;;5.80;1.70;;;;;;;;;;6291005;22;20169;-88
2023/03/26 14:40:17;;;;;;;6.60;1.42;;;;;;;;;;6292680;22;20177;-90
2023/03/26 14:43:49;;;;;;;2.95;1.40;;;;;;;;;;6276102;22;20181;-87
2023/03/26 14:47:03;;;;;;;6.80;2.20;;;;;;;;;;6245151;22;20205;-90
2023/03/26 14:50:30;;;;;;;6.50;2.13;;;;;;;;;;6297442;22;20217;-88
2023/03/26 14:53:37;;;;;;;7.65;2.50;;;;;;;;;;6297408;22;20174;-91
2023/03/26 14:57:07;;;;;;;5.00;1.73;;;;;;;;;;6295527;22;20628;-89
2023/03/26 15:00:36;;;;;;;5.00;1.50;;;;;;;;;;6276471;22;20225;-92
2023/03/26 15:04:04;;;;;;;7.88;2.92;;;;;;;;;;6277393;22;20245;-90
2023/03/26 15:07:37;;;;;;;13.23;3.58;;;;;;;;;;6294827;22;20193;-89
2023/03/26 15:10:54;;;;;;;25.75;8.10;;;;;;;;;;6292630;22;20177;-90
2023/03/26 15:14:11;;;;;;;24.20;7.00;;;;;;;;;;6294509;22;20165;-91
2023/03/26 15:17:29;;;;;;;33.83;9.52;;;;;;;;;;6293912;22;20174;-88
2023/03/26 15:20:57;;;;;;;13.02;4.10;;;;;;;;;;6290349;22;20166;-89
2023/03/26 15:24:21;;;;;;;6.63;2.92;;;;;;;;;;6282488;22;20165;-89
2023/03/26 15:27:48;;;;;;;4.53;1.42;;;;;;;;;;6278110;22;20236;-89
2023/03/26 15:31:09;;;;;;;3.00;1.20;;;;;;;;;;6262058;22;20200;-88
2023/03/26 15:34:37;;;;;;;7.35;2.13;;;;;;;;;;6292453;22;20181;-89
2023/03/26 15:37:57;;;;;;;12.25;4.47;;;;;;;;;;6294534;22;20165;-90
2023/03/26 15:41:11;;;;;;;6.05;2.20;;;;;;;;;;6274218;22;20220;-90
2023/03/26 15:44:44;;;;;;;11.15;3.92;;;;;;;;;;6288869;22;20170;-89
2023/03/26 15:47:57;;;;;;;31.10;11.00;;;;;;;;;;6242191;22;20349;-89
2023/03/26 15:51:08;;;;;;;5.53;2.08;;;;;;;;;;6270996;22;20174;-87
2023/03/26 15:54:22;;;;;;;3.22;1.50;;;;;;;;;;6287765;22;20253;-88
2023/03/26 15:57:31;;;;;;;1.52;1.08;;;;;;;;;;6270982;22;20162;-89
2023/03/26 16:00:39;;;;;;;5.25;1.50;;;;;;;;;;6287733;22;20173;-88
2023/03/26 16:03:48;;;;;;;3.13;1.35;;;;;;;;;;6271812;22;20204;-91
2023/03/26 16:06:58;;;;;;;3.33;1.20;;;;;;;;;;6288227;22;20251;-88
2023/03/26 16:10:14;;;;;;;3.55;1.55;;;;;;;;;;6289552;22;20632;-90
2023/03/26 16:13:38;;;;;;;3.75;2.08;;;;;;;;;;6272685;22;20683;-87
2023/03/26 16:16:59;;;;;;;3.90;1.63;;;;;;;;;;6272860;22;20177;-88
2023/03/26 16:20:21;;;;;;;3.42;1.50;;;;;;;;;;6274606;22;20211;-89
2023/03/26 16:23:29;;;;;;;4.40;1.40;;;;;;;;;;6273628;22;20185;-90
2023/03/26 16:26:37;;;;;;;3.20;1.38;;;;;;;;;;6272502;22;20165;-88
2023/03/26 16:30:01;;;;;;;2.50;1.05;;;;;;;;;;6275365;22;20169;-86
2023/03/26 16:33:14;;;;;;;4.97;1.40;;;;;;;;;;6290585;22;20178;-88
2023/03/26 16:36:33;;;;;;;3.88;1.63;;;;;;;;;;6269297;22;20166;-89
2023/03/26 16:39:40;;;;;;;2.60;1.10;;;;;;;;;;6270533;22;20158;-89
2023/03/26 16:42:48;;;;;;;3.63;1.73;;;;;;;;;;6267182;22;20181;-88
2023/03/26 16:45:57;;;;;;;2.13;1.38;;;;;;;;;;6287177;22;20178;-87
2023/03/26 16:49:05;;;;;;;4.53;1.50;;;;;;;;;;6269918;22;20201;-88
2023/03/26 16:52:31;;;;;;;3.25;1.40;;;;;;;;;;6287715;22;20173;-88
2023/03/26 16:55:44;;;;;;;5.43;2.10;;;;;;;;;;6286676;22;20166;-88
2023/03/26 16:58:54;;;;;;;5.43;2.03;;;;;;;;;;6289390;22;20169;-87
2023/03/26 17:02:05;;;;;;;7.32;2.38;;;;;;;;;;6288690;22;20219;-87
2023/03/26 17:05:18;;;;;;;4.75;2.20;;;;;;;;;;6285671;22;20185;-87
2023/03/26 17:08:30;;;;;;;4.80;1.90;;;;;;;;;;6288563;22;20169;-88
2023/03/26 17:11:43;;;;;;;5.25;1.83;;;;;;;;;;6286708;22;20174;-88
2023/03/26 17:15:12;;;;;;;3.42;1.65;;;;;;;;;;6285296;22;20162;-88
2023/03/26 17:18:23;;;;;;;3.28;1.85;;;;;;;;;;6284847;22;20158;-89
2023/03/26 17:21:44;;;;;;;5.13;2.33;;;;;;;;;;6284668;22;20681;-88
2023/03/26 17:24:50;;;;;;;8.07;2.92;;;;;;;;;;6269342;22;20236;-88
2023/03/26 17:28:23;;;;;;;8.38;2.85;;;;;;;;;;6287879;22;20193;-89
2023/03/26 17:31:36;;;;;;;4.65;2.22;;;;;;;;;;6270812;22;20170;-87
2023/03/26 17:34:51;;;;;;;11.32;3.30;;;;;;;;;;6288960;22;20150;-90
2023/03/26 17:37:56;;;;;;;7.38;2.42;;;;;;;;;;6273955;22;20170;-88
2023/03/26 17:41:02;;;;;;;10.23;2.10;;;;;;;;;;6291680;22;20185;-90
2023/03/26 17:44:23;;;;;;;7.72;1.73;;;;;;;;;;6273112;22;20170;-90
2023/03/26 17:47:34;;;;;;;9.13;3.33;;;;;;;;;;6242353;22;20264;-89
2023/03/26 17:50:43;;;;;;;9.85;3.83;;;;;;;;;;6241740;22;20249;-87
2023/03/26 17:53:48;;;;;;;10.85;4.47;;;;;;;;;;6258616;23;20170;-89
2023/03/26 17:56:55;;;;;;;6.68;2.80;;;;;;;;;;6255232;23;20182;-88
2023/03/26 18:00:06;;;;;;;9.10;3.35;;;;;;;;;;6253936;23;20256;-87
2023/03/26 18:03:20;;;;;;;10.23;4.07;;;;;;;;;;6255860;22;20190;-88
2023/03/26 18:06:34;;;;;;;9.13;3.13;;;;;;;;;;6253964;23;20174;-88
2023/03/26 18:09:46;;;;;;;7.45;3.30;;;;;;;;;;6253589;23;20190;-89
2023/03/26 18:13:08;;;;;;;5.70;3.20;;;;;;;;;;6235404;23;20211;-90
2023/03/26 18:16:16;;;;;;;7.00;3.40;;;;;;;;;;6255348;23;20172;-88
2023/03/26 18:19:23;;;;;;;32.08;12.23;;;;;;;;;;6256333;23;20163;-89
2023/03/26 18:23:04;;;;;;;33.63;11.77;;;;;;;;;;6238226;23;20701;-90
2023/03/26 18:26:11;;;;;;;27.17;8.48;;;;;;;;;;6256440;23;20175;-89
2023/03/26 18:29:20;;;;;;;33.90;10.32;;;;;;;;;;6256313;23;20229;-88
2023/03/26 18:32:29;;;;;;;43.92;15.63;;;;;;;;;;6239747;23;20174;-90
2023/03/26 18:35:41;;;;;;;22.67;7.82;;;;;;;;;;6238812;23;20166;-88
2023/03/26 18:38:47;;;;;;;12.13;4.95;;;;;;;;;;6238312;23;20166;-89
2023/03/26 18:41:52;;;;;;;11.68;4.22;;;;;;;;;;6238050;22;20211;-89
2023/03/26 18:44:58;;;;;;;16.05;5.68;;;;;;;;;;6239964;23;20173;-88
2023/03/26 18:48:05;;;;;;;45.88;14.73;;;;;;;;;;6240961;23;20194;-90
2023/03/26 18:51:14;;;;;;;8.40;3.58;;;;;;;;;;6241763;23;20186;-88
2023/03/26 18:54:21;;;;;;;8.95;2.90;;;;;;;;;;6259252;23;20218;-88
2023/03/26 18:57:27;;;;;;;10.52;1.90;;;;;;;;;;6241155;23;20178;-88
2023/03/26 19:00:32;;;;;;;3.92;2.03;;;;;;;;;;6257800;23;20265;-89
2023/03/26 19:04:09;;;;;;;18.67;7.88;;;;;;;;;;6258392;22;20237;-91
2023/03/26 19:07:17;;;;;;;16.65;6.05;;;;;;;;;;6258353;23;20170;-89
2023/03/26 19:10:23;;;;;;;12.75;5.28;;;;;;;;;;6258963;23;20170;-88
2023/03/26 19:13:29;;;;;;;17.20;4.95;;;;;;;;;;6257341;23;20253;-89
2023/03/26 19:16:42;;;;;;;6.72;3.20;;;;;;;;;;6259391;22;20167;-90
2023/03/26 19:19:47;;;;;;;8.02;3.28;;;;;;;;;;6238967;23;20657;-88
2023/03/26 19:23:04;;;;;;;8.18;3.50;;;;;;;;;;6241477;23;20206;-90
2023/03/26 19:26:10;;;;;;;7.45;3.45;;;;;;;;;;6240346;22;20210;-90
2023/03/26 19:29:18;;;;;;;9.80;3.45;;;;;;;;;;6238789;23;20264;-87
2023/03/26 19:32:30;;;;;;;10.18;3.80;;;;;;;;;;6240536;23;20166;-89
2023/03/26 19:35:40;;;;;;;10.30;3.47;;;;;;;;;;6256170;23;20170;-89
2023/03/26 19:38:50;;;;;;;5.18;2.85;;;;;;;;;;6255998;22;20250;-89
2023/03/26 19:41:56;;;;;;;8.23;3.20;;;;;;;;;;6258100;23;20239;-90
2023/03/26 19:45:04;;;;;;;6.32;3.10;;;;;;;;;;6259371;22;20221;-88
2023/03/26 19:48:10;;;;;;;6.43;3.20;;;;;;;;;;6257004;22;20206;-89
2023/03/26 19:51:19;;;;;;;6.13;2.72;;;;;;;;;;6258650;23;20170;-90
2023/03/26 19:54:26;;;;;;;4.95;2.20;;;;;;;;;;6255739;23;20170;-89
2023/03/26 19:57:32;;;;;;;3.80;1.92;;;;;;;;;;6257029;23;20182;-89
2023/03/26 20:00:36;;;;;;;3.47;1.95;;;;;;;;;;6239089;23;20174;-90
2023/03/26 20:04:08;;;;;;;5.72;1.95;;;;;;;;;;6239555;23;20185;-88
2023/03/26 20:07:15;;;;;;;4.93;2.53;;;;;;;;;;6237900;23;20262;-90
2023/03/26 20:10:22;;;;;;;7.10;2.63;;;;;;;;;;6256118;23;20171;-91
2023/03/26 20:13:28;;;;;;;6.43;2.83;;;;;;;;;;6255667;22;20237;-90
2023/03/26 20:16:34;;;;;;;5.97;2.80;;;;;;;;;;6256242;23;20166;-88
2023/03/26 20:19:39;;;;;;;5.28;2.65;;;;;;;;;;6255209;23;20243;-89
2023/03/26 20:22:45;;;;;;;6.95;2.88;;;;;;;;;;6253846;23;20177;-90
2023/03/26 20:25:53;;;;;;;6.15;2.50;;;;;;;;;;6238035;22;20221;-89
2023/03/26 20:28:58;;;;;;;3.97;2.42;;;;;;;;;;6253977;23;20190;-91
2023/03/26 20:32:05;;;;;;;6.25;2.85;;;;;;;;;;6255096;23;20234;-87
2023/03/26 20:35:14;;;;;;;10.73;3.97;;;;;;;;;;6254253;23;20175;-90
2023/03/26 20:38:19;;;;;;;4.95;2.80;;;;;;;;;;6255031;23;20174;-91
2023/03/26 20:41:26;;;;;;;4.88;2.53;;;;;;;;;;6255965;22;20166;-88